Date,TemperatureHighF,TemperatureAvgF,TemperatureLowF,DewpointHighF,DewpointAvgF,DewpointLowF,HumidityHigh,HumidityAvg,HumidityLow,PressureMaxIn,PressureMinIn,WindSpeedMaxMPH,WindSpeedAvgMPH,GustSpeedMaxMPH,PrecipitationSumIn
2013-8-1,101.8,88.6,72.6,68.0,62.9,60.0,68,45,28,29.95,29.79,4,1,14,0.00
2013-8-2,101.2,89.0,75.1,66.0,62.4,59.0,69,43,25,29.85,29.72,8,2,14,0.00
2013-8-3,100.1,88.4,76.7,65.0,61.0,57.0,64,42,27,29.86,29.77,11,3,16,0.00
2013-8-4,99.9,88.6,76.7,70.0,64.2,57.0,78,46,27,29.93,29.77,7,2,14,0.00
2013-8-5,99.7,87.6,77.0,69.0,63.6,58.0,68,47,27,29.90,29.71,9,3,14,0.00
2013-8-6,103.7,87.8,73.4,69.0,64.7,58.0,72,49,26,29.79,29.65,12,3,23,0.00
2013-8-7,104.6,88.6,76.9,68.0,63.7,58.0,65,46,22,29.77,29.61,9,3,22,0.02
2013-8-8,101.7,83.8,71.2,71.0,67.6,60.0,92,63,26,29.78,29.62,10,2,20,0.09
2013-8-9,102.2,85.0,70.3,72.0,66.6,59.0,92,59,28,29.89,29.75,6,1,11,0.00
2013-8-10,96.9,85.5,73.5,71.0,68.7,65.0,83,59,36,30.00,29.86,9,2,14,0.00
2013-8-11,98.4,84.4,69.4,70.0,65.7,62.0,83,56,31,29.98,29.85,7,1,11,0.00
2013-8-12,97.6,84.8,69.9,69.0,65.5,62.0,86,55,34,29.95,29.81,8,2,11,0.00
2013-8-13,99.1,87.6,76.4,70.0,64.3,60.0,74,48,30,29.92,29.78,10,3,13,0.00
2013-8-14,89.5,81.6,73.8,70.0,64.7,61.0,71,57,42,29.97,29.81,11,2,15,0.00
2013-8-15,98.1,81.9,69.9,70.0,66.7,63.0,82,62,33,29.94,29.81,7,1,17,0.00
2013-8-16,98.8,79.1,65.3,67.0,61.3,54.0,91,60,23,30.09,29.86,14,2,20,0.00
2013-8-17,97.0,81.4,63.2,65.0,60.7,56.0,87,54,26,30.00,29.84,9,1,14,0.00
2013-8-18,99.5,82.4,65.2,64.0,59.0,56.0,75,48,28,29.97,29.83,9,1,15,0.00
2013-8-19,97.8,83.5,64.8,63.0,59.3,55.0,74,46,29,29.94,29.79,9,2,13,0.00
2013-8-20,96.7,84.4,73.5,63.0,59.3,54.0,65,44,30,29.91,29.82,7,2,12,0.00
2013-8-21,96.0,82.2,67.1,68.0,61.3,54.0,83,52,29,29.97,29.85,6,1,12,0.00
2013-8-22,96.4,84.2,71.5,70.0,65.2,61.0,84,55,31,29.99,29.82,9,2,14,0.00
2013-8-23,93.6,77.8,69.1,70.0,66.0,62.0,90,69,40,29.94,29.84,9,1,17,0.11
2013-8-24,97.0,81.1,66.8,71.0,67.1,63.0,97,67,34,30.01,29.87,7,1,12,0.01
2013-8-25,98.0,84.6,70.2,72.0,65.9,61.0,85,56,33,30.02,29.90,7,1,15,0.00
2013-8-26,92.7,81.7,69.0,70.0,65.6,62.0,83,60,40,30.04,29.92,8,1,16,0.00
2013-8-27,86.2,77.9,67.1,71.0,67.2,62.0,89,70,55,29.99,29.91,13,2,18,0.00
2013-8-28,93.3,80.0,67.9,70.0,64.0,57.0,92,62,30,30.02,29.91,9,2,15,0.00
2013-8-29,96.9,81.7,65.9,69.0,61.6,56.0,82,53,31,30.02,29.88,11,1,13,0.00
2013-8-30,99.0,84.5,66.8,66.0,60.6,57.0,72,47,25,29.96,29.80,7,1,12,0.00
2013-8-31,100.4,86.0,67.6,64.0,60.3,58.0,74,45,24,29.85,29.70,8,1,14,0.00